Time;durP1;ratioP1;P1;durP2;ratioP2;P2;SDS_P1;SDS_P2;PMS_P1;PMS_P2;Temp;Humidity;BMP_temperature;BMP_pressure;BME280_temperature;BME280_humidity;BME280_pressure;Samples;Min_cycle;Max_cycle;Signal;HPM_P1;HPM_P2
2023/02/23 00:01:48;;;;;;;;;;;;;;;8.08;100.00;-18245.69;5024551;28;19922;-85
2023/02/23 00:04:13;;;;;;;;;;;;;;;8.06;100.00;-18245.03;5028127;28;19928;-85
2023/02/23 00:06:38;;;;;;;;;;;;;;;8.06;100.00;-18245.03;5026751;28;19936;-85
2023/02/23 00:09:21;;;;;;;;;;;;;;;8.06;100.00;-18245.03;5024863;28;19944;-85
2023/02/23 00:11:47;;;;;;;;;;;;;;;8.07;100.00;-18245.28;5023949;28;19929;-84
2023/02/23 00:14:12;;;;;;;;;;;;;;;8.06;100.00;-18245.03;5028199;28;19921;-85
2023/02/23 00:16:38;;;;;;;;;;;;;;;8.05;100.00;-18244.88;5026678;28;19921;-85
2023/02/23 00:19:06;;;;;;;;;;;;;;;8.04;100.00;-18244.59;5026640;28;20035;-85
2023/02/23 00:21:33;;;;;;;;;;;;;;;8.03;100.00;-18244.31;5029891;28;19921;-85
2023/02/23 00:24:03;;;;;;;;;;;;;;;8.04;100.00;-18244.47;5025885;28;19929;-85
2023/02/23 00:26:30;;;;;;;;;;;;;;;8.04;100.00;-18244.47;5027430;28;19917;-85
2023/02/23 00:28:56;;;;;;;;;;;;;;;8.02;100.00;-18244.06;5027877;28;19960;-85
2023/02/23 00:31:24;;;;;;;;;;;;;;;7.99;100.00;-18243.09;5026937;28;19983;-85
2023/02/23 00:33:52;;;;;;;;;;;;;;;8.01;100.00;-18243.63;5024296;28;19925;-85
2023/02/23 00:36:18;;;;;;;;;;;;;;;7.98;100.00;-18242.81;5058588;28;19935;-85
2023/02/23 00:38:44;;;;;;;;;;;;;;;7.98;100.00;-18242.81;5029107;28;20015;-84
2023/02/23 00:41:16;;;;;;;;;;;;;;;8.00;100.00;-18243.38;5028351;28;19928;-85
2023/02/23 00:43:46;;;;;;;;;;;;;;;8.00;100.00;-18243.38;5026386;28;20431;-85
2023/02/23 00:46:11;;;;;;;;;;;;;;;7.98;100.00;-18242.81;5028403;28;20020;-85
2023/02/23 00:48:36;;;;;;;;;;;;;;;7.98;100.00;-18242.81;5027658;28;20016;-86
2023/02/23 00:51:03;;;;;;;;;;;;;;;7.99;100.00;-18243.09;5025677;28;19921;-85
2023/02/23 00:53:28;;;;;;;;;;;;;;;7.96;100.00;-18242.25;5028172;28;20031;-85
2023/02/23 00:55:55;;;;;;;;;;;;;;;7.96;100.00;-18242.25;5027819;28;20011;-85
2023/02/23 00:58:20;;;;;;;;;;;;;;;7.95;100.00;-18242.00;5025734;28;19926;-85
2023/02/23 01:00:45;;;;;;;;;;;;;;;7.94;100.00;-18241.84;5026446;28;20359;-85
2023/02/23 01:03:10;;;;;;;;;;;;;;;7.95;100.00;-18242.13;5027114;28;20355;-85
2023/02/23 01:05:36;;;;;;;;;;;;;;;7.94;100.00;-18241.72;5030881;28;19929;-85
2023/02/23 01:08:01;;;;;;;;;;;;;;;7.94;100.00;-18241.72;5027702;28;19924;-85
2023/02/23 01:10:26;;;;;;;;;;;;;;;7.96;100.00;-18242.25;5026109;28;20304;-85
2023/02/23 01:12:52;;;;;;;;;;;;;;;7.95;100.00;-18242.13;5025123;28;20340;-85
2023/02/23 01:15:18;;;;;;;;;;;;;;;7.98;100.00;-18242.81;5028243;28;19921;-85
2023/02/23 01:17:44;;;;;;;;;;;;;;;7.97;100.00;-18242.53;5027820;28;20015;-85
2023/02/23 01:20:17;;;;;;;;;;;;;;;7.94;100.00;-18241.84;5028498;28;20025;-85
2023/02/23 01:22:48;;;;;;;;;;;;;;;7.94;100.00;-18241.72;5026748;28;19975;-85
2023/02/23 01:25:15;;;;;;;;;;;;;;;7.94;100.00;-18241.72;5026450;28;19968;-85
2023/02/23 01:27:40;;;;;;;;;;;;;;;7.95;100.00;-18242.00;5026019;28;20434;-86
2023/02/23 01:30:07;;;;;;;;;;;;;;;7.96;100.00;-18242.25;5027254;28;19999;-85
2023/02/23 01:32:33;;;;;;;;;;;;;;;7.92;100.00;-18241.31;5021501;28;19957;-86
2023/02/23 01:34:58;;;;;;;;;;;;;;;7.94;100.00;-18241.72;5025945;28;19932;-85
2023/02/23 01:37:24;;;;;;;;;;;;;;;7.93;100.00;-18241.56;5027566;28;19920;-85
2023/02/23 01:39:49;;;;;;;;;;;;;;;7.93;100.00;-18241.44;5029800;28;19925;-85
2023/02/23 01:42:14;;;;;;;;;;;;;;;7.93;100.00;-18241.44;5027013;28;19964;-85
2023/02/23 01:44:40;;;;;;;;;;;;;;;7.93;100.00;-18241.44;5026957;28;19949;-84
2023/02/23 01:47:05;;;;;;;;;;;;;;;7.91;100.00;-18241.16;5026097;28;19921;-85
2023/02/23 01:49:33;;;;;;;;;;;;;;;7.91;100.00;-18241.16;5060179;28;19921;-85
2023/02/23 01:52:03;;;;;;;;;;;;;;;7.91;100.00;-18241.16;5023686;28;20214;-85
2023/02/23 01:54:37;;;;;;;;;;;;;;;7.91;100.00;-18241.03;5026743;28;20296;-85
2023/02/23 01:57:04;;;;;;;;;;;;;;;7.88;100.00;-18240.34;5025792;28;20012;-85
2023/02/23 01:59:36;;;;;;;;;;;;;;;7.88;100.00;-18240.34;5027200;28;19921;-85
2023/02/23 02:02:04;;;;;;;;;;;;;;;7.87;100.00;-18240.06;5025559;28;19921;-84
2023/02/23 02:04:32;;;;;;;;;;;;;;;7.85;100.00;-18239.50;5028029;28;19921;-85
2023/02/23 02:07:00;;;;;;;;;;;;;;;7.84;100.00;-18239.09;5026405;28;20304;-85
2023/02/23 02:09:27;;;;;;;;;;;;;;;7.84;100.00;-18239.22;5026746;28;20601;-85
2023/02/23 02:11:53;;;;;;;;;;;;;;;7.82;100.00;-18238.69;5025326;28;20092;-85
2023/02/23 02:14:29;;;;;;;;;;;;;;;7.86;100.00;-18239.78;5029060;28;20560;-85
2023/02/23 02:17:13;;;;;;;;;;;;;;;7.86;100.00;-18239.78;5023886;28;20041;-84
2023/02/23 02:19:54;;;;;;;;;;;;;;;7.86;100.00;-18239.66;5025705;28;19928;-84
2023/02/23 02:22:27;;;;;;;;;;;;;;;7.81;100.00;-18238.41;5023898;28;20343;-85
2023/02/23 02:25:02;;;;;;;;;;;;;;;7.78;100.00;-18237.59;5025582;28;19932;-84
2023/02/23 02:27:30;;;;;;;;;;;;;;;7.80;100.00;-18238.13;5026825;28;20300;-84
2023/02/23 02:30:12;;;;;;;;;;;;;;;7.79;100.00;-18237.84;5026743;28;20019;-85
2023/02/23 02:32:54;;;;;;;;;;;;;;;7.77;100.00;-18237.31;5026762;28;19925;-83
2023/02/23 02:35:36;;;;;;;;;;;;;;;7.76;100.00;-18237.03;5024807;28;19936;-85
2023/02/23 02:38:15;;;;;;;;;;;;;;;7.76;100.00;-18237.03;5004110;28;19929;-85
2023/02/23 02:40:51;;;;;;;;;;;;;;;7.77;100.00;-18237.31;5005261;28;19921;-84
2023/02/23 02:43:23;;;;;;;;;;;;;;;7.79;100.00;-18237.84;5002379;28;20016;-85
2023/02/23 02:46:05;;;;;;;;;;;;;;;7.75;100.00;-18236.75;4998642;28;19917;-85
2023/02/23 02:48:51;;;;;;;;;;;;;;;7.72;100.00;-18235.94;5005009;28;20368;-85
2023/02/23 02:51:27;;;;;;;;;;;;;;;7.66;100.00;-18234.28;4998638;28;19921;-84
2023/02/23 02:53:53;;;;;;;;;;;;;;;7.61;100.00;-18232.91;5003032;28;19925;-85
2023/02/23 02:56:20;;;;;;;;;;;;;;;7.58;100.00;-18232.22;5015351;28;19948;-85
2023/02/23 02:58:48;;;;;;;;;;;;;;;7.58;100.00;-18232.22;5004657;28;19922;-84
2023/02/23 04:19:33;;;;;;;;;;;;;;;7.40;100.00;-18227.38;5024357;28;19921;-84
2023/02/23 04:21:58;;;;;;;;;;;;;;;7.40;100.00;-18227.25;5025902;28;20376;-85
2023/02/23 04:24:24;;;;;;;;;;;;;;;7.41;100.00;-18227.66;5004143;28;19949;-85
2023/02/23 04:26:49;;;;;;;;;;;;;;;7.40;100.00;-18227.38;5022760;28;20297;-85
2023/02/23 04:29:14;;;;;;;;;;;;;;;7.39;100.00;-18226.97;5025017;28;20347;-84
2023/02/23 04:31:40;;;;;;;;;;;;;;;7.39;100.00;-18227.13;5025704;28;20573;-84
2023/02/23 04:34:05;;;;;;;;;;;;;;;7.35;100.00;-18226.00;5025155;28;19927;-84
2023/02/23 04:36:31;;;;;;;;;;;;;;;7.35;100.00;-18226.00;5025705;28;19921;-84
2023/02/23 04:38:56;;;;;;;;;;;;;;;7.34;100.00;-18225.72;5006989;28;20616;-84
2023/02/23 04:41:21;;;;;;;;;;;;;;;7.34;100.00;-18225.72;5008416;28;20342;-84
2023/02/23 04:43:47;;;;;;;;;;;;;;;7.35;100.00;-18225.88;5026803;28;20011;-84
2023/02/23 04:46:12;;;;;;;;;;;;;;;7.38;100.00;-18226.69;5029220;28;19924;-84
2023/02/23 04:48:37;;;;;;;;;;;;;;;7.33;100.00;-18225.31;5029932;28;19921;-85
2023/02/23 04:51:03;;;;;;;;;;;;;;;7.32;100.00;-18225.03;5027014;28;19928;-85
2023/02/23 04:53:28;;;;;;;;;;;;;;;7.29;100.00;-18224.34;5011655;28;19921;-84
2023/02/23 04:55:53;;;;;;;;;;;;;;;7.32;100.00;-18225.03;5009858;28;19996;-84
2023/02/23 04:58:19;;;;;;;;;;;;;;;7.32;100.00;-18225.03;5028449;28;20416;-84
2023/02/23 05:00:44;;;;;;;;;;;;;;;7.32;100.00;-18225.19;5028212;28;19925;-85
2023/02/23 05:03:11;;;;;;;;;;;;;;;7.26;100.00;-18223.53;5026801;28;20391;-84
2023/02/23 05:05:36;;;;;;;;;;;;;;;7.28;100.00;-18223.94;5028522;28;19947;-85
2023/02/23 05:08:01;;;;;;;;;;;;;;;7.30;100.00;-18224.63;5026261;28;19933;-84
2023/02/23 05:10:27;;;;;;;;;;;;;;;7.27;100.00;-18223.66;5046482;22;20021;-83
2023/02/23 05:12:53;;;;;;;;;;;;;;;7.23;100.00;-18222.69;5014316;28;19933;-83
2023/02/23 05:15:19;;;;;;;;;;;;;;;7.21;100.00;-18222.16;5013524;28;19921;-83
2023/02/23 05:17:44;;;;;;;;;;;;;;;7.19;100.00;-18221.59;5014630;28;20046;-84
2023/02/23 05:20:10;;;;;;;;;;;;;;;7.19;100.00;-18221.75;5033239;28;19952;-84
2023/02/23 05:22:35;;;;;;;;;;;;;;;7.17;100.00;-18221.06;5031946;28;20403;-83
2023/02/23 05:25:01;;;;;;;;;;;;;;;7.16;100.00;-18220.91;5032985;28;19921;-83
2023/02/23 05:27:26;;;;;;;;;;;;;;;7.14;100.00;-18220.38;5032417;28;19921;-83
2023/02/23 05:29:51;;;;;;;;;;;;;;;7.18;100.00;-18221.31;5030629;28;19928;-82
2023/02/23 05:32:16;;;;;;;;;;;;;;;7.17;100.00;-18221.19;5029253;28;19925;-82
2023/02/23 05:34:42;;;;;;;;;;;;;;;7.13;100.00;-18220.09;5027879;28;19925;-83
2023/02/23 05:37:07;;;;;;;;;;;;;;;7.12;100.00;-18219.81;5030746;28;19932;-83
2023/02/23 05:39:32;;;;;;;;;;;;;;;7.14;100.00;-18220.38;5029808;28;19925;-83
2023/02/23 05:41:58;;;;;;;;;;;;;;;7.16;100.00;-18220.91;5027370;28;22261;-83
2023/02/23 05:44:23;;;;;;;;;;;;;;;7.12;100.00;-18219.66;5031789;28;19929;-84
2023/02/23 05:46:49;;;;;;;;;;;;;;;7.10;100.00;-18219.25;5029302;28;19925;-83
2023/02/23 05:49:14;;;;;;;;;;;;;;;7.10;100.00;-18219.25;5032024;28;19975;-83
2023/02/23 05:51:39;;;;;;;;;;;;;;;7.10;100.00;-18219.13;5031430;28;19925;-85
2023/02/23 05:54:05;;;;;;;;;;;;;;;7.12;100.00;-18219.66;5030348;28;19925;-83
2023/02/23 05:56:30;;;;;;;;;;;;;;;7.10;100.00;-18219.13;5013453;28;20016;-83
2023/02/23 05:58:56;;;;;;;;;;;;;;;7.05;100.00;-18217.88;5030608;28;19944;-83
2023/02/23 06:01:22;;;;;;;;;;;;;;;7.01;100.00;-18216.78;5003463;28;20500;-83
2023/02/23 06:03:47;;;;;;;;;;;;;;;6.98;100.00;-18216.09;5010576;28;19953;-84
2023/02/23 06:06:13;;;;;;;;;;;;;;;7.04;100.00;-18217.47;5035651;28;19921;-84
2023/02/23 06:08:38;;;;;;;;;;;;;;;7.03;100.00;-18217.31;5019617;28;19953;-84
2023/02/23 06:11:04;;;;;;;;;;;;;;;7.01;100.00;-18216.78;5033088;28;19929;-84
2023/02/23 06:13:30;;;;;;;;;;;;;;;7.03;100.00;-18217.19;5034572;28;19964;-83
2023/02/23 06:15:56;;;;;;;;;;;;;;;6.96;100.00;-18215.53;5027989;28;19927;-83
2023/02/23 06:18:21;;;;;;;;;;;;;;;6.97;100.00;-18215.81;5026385;28;20012;-83
2023/02/23 06:20:46;;;;;;;;;;;;;;;6.97;100.00;-18215.81;5028095;28;19925;-83
2023/02/23 06:23:14;;;;;;;;;;;;;;;7.04;100.00;-18217.47;5027291;28;20506;-83
2023/02/23 06:25:39;;;;;;;;;;;;;;;7.01;100.00;-18216.91;5029495;28;20387;-83
2023/02/23 06:28:06;;;;;;;;;;;;;;;6.96;100.00;-18215.53;5028797;28;19963;-83
2023/02/23 06:30:31;;;;;;;;;;;;;;;6.94;100.00;-18214.84;5030387;28;19925;-83
2023/02/23 06:32:56;;;;;;;;;;;;;;;6.93;100.00;-18214.72;5011513;28;20568;-83
2023/02/23 06:35:23;;;;;;;;;;;;;;;6.90;100.00;-18213.88;5029470;28;19924;-85
2023/02/23 06:37:48;;;;;;;;;;;;;;;6.86;100.00;-18212.78;5026343;28;20358;-84
2023/02/23 06:40:13;;;;;;;;;;;;;;;6.87;100.00;-18213.06;5029301;28;19927;-84
2023/02/23 06:42:38;;;;;;;;;;;;;;;6.84;100.00;-18212.22;5025096;28;19961;-83
2023/02/23 06:45:04;;;;;;;;;;;;;;;6.83;100.00;-18211.81;5027171;28;19964;-84
2023/02/23 06:47:29;;;;;;;;;;;;;;;6.81;100.00;-18211.41;5010040;28;19928;-84
2023/02/23 06:49:54;;;;;;;;;;;;;;;6.81;100.00;-18211.41;5027272;28;19925;-83
2023/02/23 06:52:20;;;;;;;;;;;;;;;6.81;100.00;-18211.41;5000595;28;20377;-83
2023/02/23 06:54:47;;;;;;;;;;;;;;;6.82;100.00;-18211.53;5023752;28;20158;-84
2023/02/23 06:57:12;;;;;;;;;;;;;;;6.79;100.00;-18210.84;5027135;28;19928;-82
2023/02/23 06:59:38;;;;;;;;;;;;;;;6.78;100.00;-18210.56;5028766;28;20303;-84
2023/02/23 07:02:06;;;;;;;;;;;;;;;6.82;100.00;-18211.69;5027604;28;19929;-84
2023/02/23 07:06:59;;;;;;;;;;;;;;;6.80;100.00;-18211.13;4983021;28;19929;-86
2023/02/23 07:09:24;;;;;;;;;;;;;;;6.80;100.00;-18211.00;4979543;28;19926;-86
2023/02/23 07:11:49;;;;;;;;;;;;;;;6.80;100.00;-18211.00;4984205;28;20554;-86
2023/02/23 07:14:15;;;;;;;;;;;;;;;6.81;100.00;-18211.41;4985277;28;19925;-87
2023/02/23 07:16:41;;;;;;;;;;;;;;;6.83;100.00;-18211.94;4968310;28;20369;-86
2023/02/23 07:19:06;;;;;;;;;;;;;;;6.83;100.00;-18211.81;4984092;28;19922;-86
2023/02/23 07:21:32;;;;;;;;;;;;;;;6.84;100.00;-18212.09;4968726;28;19926;-86
2023/02/23 07:23:57;;;;;;;;;;;;;;;6.84;100.00;-18212.09;4984400;28;19933;-86
2023/02/23 07:26:23;;;;;;;;;;;;;;;6.80;100.00;-18211.00;4982929;28;19924;-86
2023/02/23 07:28:48;;;;;;;;;;;;;;;6.82;100.00;-18211.53;4983030;28;19921;-85
2023/02/23 07:31:13;;;;;;;;;;;;;;;6.81;100.00;-18211.25;4986975;28;19932;-86
2023/02/23 07:33:39;;;;;;;;;;;;;;;6.80;100.00;-18211.13;4982784;28;20352;-86
2023/02/23 07:36:04;;;;;;;;;;;;;;;6.77;100.00;-18210.31;4983452;28;19961;-86
2023/02/23 07:38:30;;;;;;;;;;;;;;;6.78;100.00;-18210.56;4970888;28;19960;-86
2023/02/23 07:40:55;;;;;;;;;;;;;;;6.77;100.00;-18210.31;4983031;28;20049;-86
2023/02/23 07:43:21;;;;;;;;;;;;;;;6.74;100.00;-18209.59;4979097;28;19926;-86
2023/02/23 07:45:47;;;;;;;;;;;;;;;6.73;100.00;-18209.19;4982698;28;19921;-86
2023/02/23 07:48:12;;;;;;;;;;;;;;;6.79;100.00;-18210.84;4984762;28;19929;-86
2023/02/23 07:50:38;;;;;;;;;;;;;;;6.81;100.00;-18211.41;4969667;28;19921;-86
2023/02/23 07:53:03;;;;;;;;;;;;;;;6.75;100.00;-18209.75;4984535;28;19943;-86
2023/02/23 07:55:29;;;;;;;;;;;;;;;6.79;100.00;-18210.84;4987074;28;19922;-86
2023/02/23 07:57:54;;;;;;;;;;;;;;;6.82;100.00;-18211.53;4968243;28;20477;-85
2023/02/23 08:00:19;;;;;;;;;;;;;;;6.83;100.00;-18211.94;4967761;28;19922;-86
2023/02/23 08:02:44;;;;;;;;;;;;;;;6.82;100.00;-18211.69;4968788;28;20032;-86
2023/02/23 08:05:10;;;;;;;;;;;;;;;6.81;100.00;-18211.25;4984558;28;20076;-86
2023/02/23 08:07:35;;;;;;;;;;;;;;;6.76;100.00;-18210.16;4968401;28;19922;-86
2023/02/23 08:10:00;;;;;;;;;;;;;;;6.78;100.00;-18210.72;4983235;28;19949;-86
2023/02/23 08:12:26;;;;;;;;;;;;;;;6.74;100.00;-18209.47;4984802;28;20068;-86
2023/02/23 08:14:52;;;;;;;;;;;;;;;6.70;100.00;-18208.38;4968748;28;20125;-86
2023/02/23 08:17:20;;;;;;;;;;;;;;;6.72;100.00;-18208.91;4984027;28;19930;-86
2023/02/23 08:19:46;;;;;;;;;;;;;;;6.72;100.00;-18209.06;4971163;28;19953;-86
2023/02/23 08:22:11;;;;;;;;;;;;;;;6.69;100.00;-18208.09;4986590;28;20301;-86
2023/02/23 08:24:36;;;;;;;;;;;;;;;6.68;100.00;-18207.81;4988662;28;19921;-86
2023/02/23 08:27:02;;;;;;;;;;;;;;;6.66;100.00;-18207.28;4985718;28;20662;-86
2023/02/23 08:29:28;;;;;;;;;;;;;;;6.66;100.00;-18207.28;4989395;28;19929;-86
2023/02/23 08:31:54;;;;;;;;;;;;;;;6.67;100.00;-18207.69;4983860;28;20421;-86
2023/02/23 08:34:21;;;;;;;;;;;;;;;6.66;100.00;-18207.28;4987360;28;19926;-86
2023/02/23 08:36:47;;;;;;;;;;;;;;;6.71;100.00;-18208.66;4986378;28;19961;-86
2023/02/23 08:39:12;;;;;;;;;;;;;;;6.69;100.00;-18208.09;4985434;28;20373;-85
2023/02/23 08:41:38;;;;;;;;;;;;;;;6.68;100.00;-18207.81;4992034;28;20673;-86
2023/02/23 08:44:03;;;;;;;;;;;;;;;6.72;100.00;-18208.91;4974305;28;20286;-85
2023/02/23 08:46:28;;;;;;;;;;;;;;;6.77;100.00;-18210.31;4990453;28;19968;-86
2023/02/23 08:48:54;;;;;;;;;;;;;;;6.80;100.00;-18211.13;4974169;28;19972;-85
2023/02/23 08:51:19;;;;;;;;;;;;;;;6.77;100.00;-18210.31;4992520;28;20578;-85
2023/02/23 08:53:44;;;;;;;;;;;;;;;6.75;100.00;-18209.88;4992738;28;20001;-85
2023/02/23 08:56:10;;;;;;;;;;;;;;;6.71;100.00;-18208.78;4993854;28;19918;-85
2023/02/23 08:58:35;;;;;;;;;;;;;;;6.66;100.00;-18207.28;4977889;28;19953;-85
2023/02/23 09:01:01;;;;;;;;;;;;;;;6.65;100.00;-18207.00;4991512;28;19956;-85
2023/02/23 09:03:29;;;;;;;;;;;;;;;6.66;100.00;-18207.41;4989125;28;19972;-85
2023/02/23 09:05:54;;;;;;;;;;;;;;;6.69;100.00;-18208.09;4969111;28;20012;-85
2023/02/23 09:08:20;;;;;;;;;;;;;;;6.67;100.00;-18207.53;4972867;28;20000;-85
2023/02/23 09:10:45;;;;;;;;;;;;;;;6.69;100.00;-18208.22;4990949;28;20384;-85
2023/02/23 09:13:11;;;;;;;;;;;;;;;6.76;100.00;-18210.03;4990953;28;19922;-86
2023/02/23 09:15:40;;;;;;;;;;;;;;;6.80;100.00;-18211.13;4991545;28;20171;-85
2023/02/23 09:18:06;;;;;;;;;;;;;;;6.83;100.00;-18211.94;4989352;28;20016;-85
2023/02/23 09:20:31;;;;;;;;;;;;;;;6.85;100.00;-18212.50;4991108;28;19925;-85
2023/02/23 09:22:56;;;;;;;;;;;;;;;6.77;100.00;-18210.31;4989476;28;19918;-85
2023/02/23 09:25:22;;;;;;;;;;;;;;;6.80;100.00;-18211.13;4976452;28;20100;-86
2023/02/23 09:27:48;;;;;;;;;;;;;;;6.87;100.00;-18213.06;4987166;28;20316;-86
2023/02/23 09:30:16;;;;;;;;;;;;;;;6.85;100.00;-18212.50;4969675;28;19918;-85
2023/02/23 09:32:45;;;;;;;;;;;;;;;6.88;100.00;-18213.34;4968542;28;20009;-86
2023/02/23 09:35:11;;;;;;;;;;;;;;;6.94;100.00;-18215.00;4967987;28;19917;-85
2023/02/23 09:37:36;;;;;;;;;;;;;;;6.93;100.00;-18214.72;4976024;28;20368;-85
2023/02/23 09:40:02;;;;;;;;;;;;;;;6.90;100.00;-18213.88;4969455;28;19924;-85
2023/02/23 09:42:34;;;;;;;;;;;;;;;6.98;100.00;-18215.94;4974275;28;20009;-85
2023/02/23 09:45:03;;;;;;;;;;;;;;;6.91;100.00;-18214.03;4981809;28;20056;-86
2023/02/23 09:47:31;;;;;;;;;;;;;;;6.86;100.00;-18212.78;4968641;28;20392;-86
2023/02/23 09:49:59;;;;;;;;;;;;;;;6.97;100.00;-18215.69;4958610;28;20415;-86
2023/02/23 09:52:27;;;;;;;;;;;;;;;6.98;100.00;-18216.09;4967670;28;19922;-85
2023/02/23 09:54:52;;;;;;;;;;;;;;;7.04;100.00;-18217.47;4980105;28;19917;-86
2023/02/23 09:57:20;;;;;;;;;;;;;;;7.06;100.00;-18218.03;4967698;28;20400;-86
2023/02/23 09:59:45;;;;;;;;;;;;;;;7.06;100.00;-18218.03;4972158;28;19917;-85
2023/02/23 10:02:18;;;;;;;;;;;;;;;7.13;100.00;-18219.94;4982677;28;19918;-86
2023/02/23 10:04:48;;;;;;;;;;;;;;;7.08;100.00;-18218.56;4970679;28;19922;-86
2023/02/23 10:07:16;;;;;;;;;;;;;;;7.05;100.00;-18217.88;4977865;28;19918;-85
2023/02/23 10:09:47;;;;;;;;;;;;;;;7.06;100.00;-18218.16;4990362;28;20400;-86
2023/02/23 10:12:19;;;;;;;;;;;;;;;7.22;100.00;-18222.44;4971291;28;19918;-85
2023/02/23 10:14:51;;;;;;;;;;;;;;;7.19;100.00;-18221.59;4988735;28;20017;-85
2023/02/23 10:17:29;;;;;;;;;;;;;;;7.19;100.00;-18221.59;4988940;28;20037;-86
2023/02/23 10:20:02;;;;;;;;;;;;;;;7.22;100.00;-18222.44;4969402;28;20578;-85
2023/02/23 10:22:27;;;;;;;;;;;;;;;7.18;100.00;-18221.31;4990047;28;20439;-86
2023/02/23 10:24:59;;;;;;;;;;;;;;;7.18;100.00;-18221.31;4979544;28;20004;-84
2023/02/23 10:27:29;;;;;;;;;;;;;;;7.23;100.00;-18222.69;4974810;28;20420;-86
2023/02/23 10:29:55;;;;;;;;;;;;;;;7.30;100.00;-18224.63;4968200;28;19929;-86
2023/02/23 10:32:40;;;;;;;;;;;;;;;7.29;100.00;-18224.34;4970377;28;19925;-86
2023/02/23 10:35:13;;;;;;;;;;;;;;;7.36;100.00;-18226.28;4987279;28;19926;-86
2023/02/23 10:37:38;;;;;;;;;;;;;;;7.39;100.00;-18227.13;4974761;28;19940;-86
2023/02/23 10:40:05;;;;;;;;;;;;;;;7.35;100.00;-18225.88;4988760;28;20413;-86
2023/02/23 10:42:30;;;;;;;;;;;;;;;7.36;100.00;-18226.28;4971978;28;20472;-86
2023/02/23 10:44:57;;;;;;;;;;;;;;;7.37;100.00;-18226.56;4970473;28;19941;-85
2023/02/23 10:47:25;;;;;;;;;;;;;;;7.39;100.00;-18227.13;4972594;28;19921;-86
2023/02/23 10:49:52;;;;;;;;;;;;;;;7.39;100.00;-18226.97;4986288;28;20003;-85
2023/02/23 10:52:28;;;;;;;;;;;;;;;7.41;100.00;-18227.53;4966213;28;19974;-85
2023/02/23 10:54:53;;;;;;;;;;;;;;;7.40;100.00;-18227.38;4982064;28;19955;-85
2023/02/23 10:57:19;;;;;;;;;;;;;;;7.41;100.00;-18227.66;4982995;28;19945;-86
2023/02/23 10:59:58;;;;;;;;;;;;;;;7.34;100.00;-18225.59;4982347;28;19926;-86
2023/02/23 11:02:24;;;;;;;;;;;;;;;7.33;100.00;-18225.31;4967086;28;19980;-86
2023/02/23 11:04:51;;;;;;;;;;;;;;;7.34;100.00;-18225.72;4960826;28;19972;-86
2023/02/23 11:07:20;;;;;;;;;;;;;;;7.35;100.00;-18226.00;4978557;28;19950;-85
2023/02/23 11:09:45;;;;;;;;;;;;;;;7.36;100.00;-18226.28;4965389;28;19985;-85
2023/02/23 11:12:20;;;;;;;;;;;;;;;7.34;100.00;-18225.59;4966397;28;19929;-85
2023/02/23 11:14:46;;;;;;;;;;;;;;;7.40;100.00;-18227.25;4967184;28;19968;-85
2023/02/23 11:17:28;;;;;;;;;;;;;;;7.46;100.00;-18228.91;4969127;28;20419;-85
2023/02/23 11:19:57;;;;;;;;;;;;;;;7.51;100.00;-18230.13;4967107;28;19921;-85
2023/02/23 11:22:25;;;;;;;;;;;;;;;7.51;100.00;-18230.13;4984560;28;19928;-85
2023/02/23 11:24:52;;;;;;;;;;;;;;;7.46;100.00;-18229.03;4988096;28;19924;-85
2023/02/23 11:27:22;;;;;;;;;;;;;;;7.51;100.00;-18230.13;4989040;28;19918;-85
2023/02/23 11:29:49;;;;;;;;;;;;;;;7.56;100.00;-18231.66;4989368;28;20350;-85
2023/02/23 11:32:18;;;;;;;;;;;;;;;7.53;100.00;-18230.81;4978793;28;20125;-85
2023/02/23 11:34:43;;;;;;;;;;;;;;;7.57;100.00;-18231.94;4980894;28;20001;-85
2023/02/23 11:37:12;;;;;;;;;;;;;;;7.55;100.00;-18231.38;4979652;28;20045;-85
2023/02/23 11:39:49;;;;;;;;;;;;;;;7.56;100.00;-18231.53;4988949;28;19973;-85
2023/02/23 11:42:18;;;;;;;;;;;;;;;7.58;100.00;-18232.06;4979314;28;19927;-85
2023/02/23 11:45:04;;;;;;;;;;;;;;;7.53;100.00;-18230.81;4983851;28;20403;-86
2023/02/23 11:47:31;;;;;;;;;;;;;;;7.53;100.00;-18230.69;4980465;28;19924;-85
2023/02/23 11:49:56;;;;;;;;;;;;;;;7.56;100.00;-18231.53;4974509;28;19919;-85
2023/02/23 11:52:23;;;;;;;;;;;;;;;7.60;100.00;-18232.63;4967749;28;19922;-85
2023/02/23 11:54:56;;;;;;;;;;;;;;;7.62;100.00;-18233.31;4975753;28;19950;-85
2023/02/23 11:57:24;;;;;;;;;;;;;;;7.62;100.00;-18233.31;4973662;28;19924;-85
2023/02/23 11:59:50;;;;;;;;;;;;;;;7.61;100.00;-18233.03;4993594;28;20477;-85
2023/02/23 12:02:17;;;;;;;;;;;;;;;7.66;100.00;-18234.41;4994206;28;19917;-85
2023/02/23 12:04:46;;;;;;;;;;;;;;;7.59;100.00;-18232.34;4981128;28;19953;-85
2023/02/23 12:07:20;;;;;;;;;;;;;;;7.57;100.00;-18231.78;4993999;28;20286;-85
2023/02/23 12:09:47;;;;;;;;;;;;;;;7.54;100.00;-18230.97;4980644;28;20381;-85
2023/02/23 12:12:17;;;;;;;;;;;;;;;7.56;100.00;-18231.53;4978833;28;19922;-85
2023/02/23 12:14:50;;;;;;;;;;;;;;;7.53;100.00;-18230.69;4992591;28;19969;-85
2023/02/23 12:17:19;;;;;;;;;;;;;;;7.55;100.00;-18231.25;4990553;28;20412;-85
2023/02/23 12:19:48;;;;;;;;;;;;;;;7.53;100.00;-18230.81;4969549;28;19922;-85
2023/02/23 12:22:17;;;;;;;;;;;;;;;7.49;100.00;-18229.59;4987080;28;20357;-85
2023/02/23 12:24:48;;;;;;;;;;;;;;;7.51;100.00;-18230.13;4992661;28;19926;-85
2023/02/23 12:27:14;;;;;;;;;;;;;;;7.54;100.00;-18231.09;4974109;28;19996;-85
2023/02/23 12:29:45;;;;;;;;;;;;;;;7.52;100.00;-18230.41;4991940;28;20025;-85
2023/02/23 12:32:13;;;;;;;;;;;;;;;7.49;100.00;-18229.59;4991367;28;19925;-86
2023/02/23 12:34:42;;;;;;;;;;;;;;;7.51;100.00;-18230.13;4990299;28;19922;-85
2023/02/23 12:37:17;;;;;;;;;;;;;;;7.47;100.00;-18229.31;4980978;28;19918;-86
2023/02/23 12:39:44;;;;;;;;;;;;;;;7.46;100.00;-18228.91;4984905;28;20351;-86
2023/02/23 12:42:19;;;;;;;;;;;;;;;7.47;100.00;-18229.31;4985549;28;19977;-85
2023/02/23 12:45:01;;;;;;;;;;;;;;;7.44;100.00;-18228.50;4991873;28;19922;-85
2023/02/23 12:47:42;;;;;;;;;;;;;;;7.40;100.00;-18227.38;4958807;28;20297;-86
2023/02/23 12:50:12;;;;;;;;;;;;;;;7.39;100.00;-18227.13;4990506;28;19936;-85
2023/02/23 12:52:45;;;;;;;;;;;;;;;7.39;100.00;-18226.97;4973828;28;19922;-86
2023/02/23 12:55:11;;;;;;;;;;;;;;;7.38;100.00;-18226.84;4985124;28;19918;-86
2023/02/23 12:57:43;;;;;;;;;;;;;;;7.40;100.00;-18227.25;4973867;28;20409;-85
2023/02/23 13:00:29;;;;;;;;;;;;;;;7.42;100.00;-18227.78;4990619;28;19921;-86
2023/02/23 13:03:13;;;;;;;;;;;;;;;7.32;100.00;-18225.19;4979146;28;19922;-86
2023/02/23 13:05:50;;;;;;;;;;;;;;;7.31;100.00;-18224.91;4989617;28;19921;-86
2023/02/23 13:08:19;;;;;;;;;;;;;;;7.32;100.00;-18225.19;4974527;28;19925;-86
2023/02/23 13:10:45;;;;;;;;;;;;;;;7.29;100.00;-18224.34;4977376;28;19924;-86
2023/02/23 13:13:10;;;;;;;;;;;;;;;7.29;100.00;-18224.34;4976894;28;19926;-86
2023/02/23 13:15:54;;;;;;;;;;;;;;;7.32;100.00;-18225.19;4983104;28;20006;-86
2023/02/23 13:18:38;;;;;;;;;;;;;;;7.24;100.00;-18223.13;4987179;28;20029;-86
2023/02/23 13:21:24;;;;;;;;;;;;;;;7.23;100.00;-18222.69;4983339;28;20346;-86
2023/02/23 13:24:01;;;;;;;;;;;;;;;7.22;100.00;-18222.56;4988945;28;19925;-87
2023/02/23 13:26:37;;;;;;;;;;;;;;;7.22;100.00;-18222.44;4963159;28;20365;-86
2023/02/23 13:29:09;;;;;;;;;;;;;;;7.17;100.00;-18221.19;4982919;28;19924;-86
2023/02/23 13:31:35;;;;;;;;;;;;;;;7.13;100.00;-18219.94;4966912;28;20308;-86
2023/02/23 13:34:01;;;;;;;;;;;;;;;7.10;100.00;-18219.13;4989691;28;20029;-87
2023/02/23 13:36:28;;;;;;;;;;;;;;;7.04;100.00;-18217.47;4989578;28;19972;-86
2023/02/23 13:38:53;;;;;;;;;;;;;;;6.99;100.00;-18216.38;4990689;28;20155;-86
2023/02/23 13:41:27;;;;;;;;;;;;;;;6.93;100.00;-18214.72;4985208;28;19950;-86
2023/02/23 13:44:09;;;;;;;;;;;;;;;6.94;100.00;-18215.00;4986287;28;19933;-86
2023/02/23 13:46:53;;;;;;;;;;;;;;;6.89;100.00;-18213.59;4983034;28;20282;-86
2023/02/23 13:49:19;;;;;;;;;;;;;;;6.92;100.00;-18214.44;4968451;28;20382;-86
2023/02/23 13:51:48;;;;;;;;;;;;;;;6.94;100.00;-18214.84;4981351;28;19922;-86
2023/02/23 13:54:14;;;;;;;;;;;;;;;6.99;100.00;-18216.38;4970713;28;20413;-86
2023/02/23 13:56:46;;;;;;;;;;;;;;;7.03;100.00;-18217.19;4988421;28;19918;-86
2023/02/23 13:59:16;;;;;;;;;;;;;;;6.96;100.00;-18215.41;4988373;28;20522;-86
2023/02/23 14:01:46;;;;;;;;;;;;;;;7.02;100.00;-18217.06;4989497;28;19921;-86